sensor_id;sensor_type;location;lat;lon;timestamp;temperature;humidity
45785;DHT22;31489;51.404;5.474;2022-12-26T00:01:37;13.70;85.60
45785;DHT22;31489;51.404;5.474;2022-12-26T00:04:04;13.70;85.60
45785;DHT22;31489;51.404;5.474;2022-12-26T00:06:31;13.70;85.60
45785;DHT22;31489;51.404;5.474;2022-12-26T00:08:58;13.70;85.70
45785;DHT22;31489;51.404;5.474;2022-12-26T00:11:25;13.70;85.70
45785;DHT22;31489;51.404;5.474;2022-12-26T00:13:55;13.60;85.60
45785;DHT22;31489;51.404;5.474;2022-12-26T00:16:22;13.60;85.60
45785;DHT22;31489;51.404;5.474;2022-12-26T00:18:48;13.60;85.60
45785;DHT22;31489;51.404;5.474;2022-12-26T00:21:15;13.60;85.60
45785;DHT22;31489;51.404;5.474;2022-12-26T00:23:42;13.60;85.50
45785;DHT22;31489;51.404;5.474;2022-12-26T00:26:10;13.60;85.60
45785;DHT22;31489;51.404;5.474;2022-12-26T00:28:37;13.60;85.60
45785;DHT22;31489;51.404;5.474;2022-12-26T00:31:09;13.60;85.60
45785;DHT22;31489;51.404;5.474;2022-12-26T00:33:35;13.50;85.60
45785;DHT22;31489;51.404;5.474;2022-12-26T00:36:07;13.60;85.60
45785;DHT22;31489;51.404;5.474;2022-12-26T00:38:34;13.50;85.60
45785;DHT22;31489;51.404;5.474;2022-12-26T00:41:01;13.50;85.70
45785;DHT22;31489;51.404;5.474;2022-12-26T00:43:27;13.50;85.70
45785;DHT22;31489;51.404;5.474;2022-12-26T00:45:52;13.50;85.60
45785;DHT22;31489;51.404;5.474;2022-12-26T00:48:18;13.50;85.60
45785;DHT22;31489;51.404;5.474;2022-12-26T00:50:44;13.60;85.60
45785;DHT22;31489;51.404;5.474;2022-12-26T00:53:09;13.50;85.60
45785;DHT22;31489;51.404;5.474;2022-12-26T00:55:35;13.50;85.60
45785;DHT22;31489;51.404;5.474;2022-12-26T00:58:00;13.50;85.60
45785;DHT22;31489;51.404;5.474;2022-12-26T01:00:26;13.50;85.70
45785;DHT22;31489;51.404;5.474;2022-12-26T01:02:52;13.50;85.60
45785;DHT22;31489;51.404;5.474;2022-12-26T01:05:19;13.50;85.50
45785;DHT22;31489;51.404;5.474;2022-12-26T01:07:44;13.50;85.50
45785;DHT22;31489;51.404;5.474;2022-12-26T01:10:11;13.50;85.60
45785;DHT22;31489;51.404;5.474;2022-12-26T01:12:37;13.50;85.60
45785;DHT22;31489;51.404;5.474;2022-12-26T01:15:04;13.50;85.60
45785;DHT22;31489;51.404;5.474;2022-12-26T01:17:30;13.50;85.60
45785;DHT22;31489;51.404;5.474;2022-12-26T01:19:56;13.50;85.60
45785;DHT22;31489;51.404;5.474;2022-12-26T01:22:22;13.50;85.60
45785;DHT22;31489;51.404;5.474;2022-12-26T01:24:48;13.50;85.70
45785;DHT22;31489;51.404;5.474;2022-12-26T01:27:14;13.50;85.60
45785;DHT22;31489;51.404;5.474;2022-12-26T01:29:39;13.50;85.60
45785;DHT22;31489;51.404;5.474;2022-12-26T01:32:05;13.50;85.60
45785;DHT22;31489;51.404;5.474;2022-12-26T01:34:31;13.50;85.70
45785;DHT22;31489;51.404;5.474;2022-12-26T01:36:56;13.50;85.70
45785;DHT22;31489;51.404;5.474;2022-12-26T01:39:22;13.40;85.60
45785;DHT22;31489;51.404;5.474;2022-12-26T01:41:48;13.40;85.60
45785;DHT22;31489;51.404;5.474;2022-12-26T01:47:18;13.40;85.70
45785;DHT22;31489;51.404;5.474;2022-12-26T01:49:47;13.40;85.60
45785;DHT22;31489;51.404;5.474;2022-12-26T01:52:20;13.40;85.60
45785;DHT22;31489;51.404;5.474;2022-12-26T01:54:49;13.40;85.50
45785;DHT22;31489;51.404;5.474;2022-12-26T01:57:20;13.40;85.50
45785;DHT22;31489;51.404;5.474;2022-12-26T01:59:47;13.40;85.50
45785;DHT22;31489;51.404;5.474;2022-12-26T02:02:15;13.40;85.50
45785;DHT22;31489;51.404;5.474;2022-12-26T02:04:45;13.40;85.50
45785;DHT22;31489;51.404;5.474;2022-12-26T02:07:32;13.40;85.50
45785;DHT22;31489;51.404;5.474;2022-12-26T02:09:59;13.30;85.50
45785;DHT22;31489;51.404;5.474;2022-12-26T02:12:28;13.40;85.60
45785;DHT22;31489;51.404;5.474;2022-12-26T02:14:56;13.40;85.50
45785;DHT22;31489;51.404;5.474;2022-12-26T02:17:23;13.30;85.50
45785;DHT22;31489;51.404;5.474;2022-12-26T02:20:11;13.30;85.40
45785;DHT22;31489;51.404;5.474;2022-12-26T02:28:45;13.30;85.20
45785;DHT22;31489;51.404;5.474;2022-12-26T02:32:15;13.30;85.60
45785;DHT22;31489;51.404;5.474;2022-12-26T02:34:30;13.20;85.20
45785;DHT22;31489;51.404;5.474;2022-12-26T02:46:00;13.20;85.50
45785;DHT22;31489;51.404;5.474;2022-12-26T02:48:57;13.20;85.50
45785;DHT22;31489;51.404;5.474;2022-12-26T02:54:59;13.20;85.50
45785;DHT22;31489;51.404;5.474;2022-12-26T03:00:42;13.20;85.70
45785;DHT22;31489;51.404;5.474;2022-12-26T03:03:30;13.20;85.70
45785;DHT22;31489;51.404;5.474;2022-12-26T03:06:24;13.20;85.60
45785;DHT22;31489;51.404;5.474;2022-12-26T03:09:14;13.20;85.50
45785;DHT22;31489;51.404;5.474;2022-12-26T03:12:04;13.20;85.50
45785;DHT22;31489;51.404;5.474;2022-12-26T03:15:02;13.20;85.50
45785;DHT22;31489;51.404;5.474;2022-12-26T03:17:37;13.20;85.50
45785;DHT22;31489;51.404;5.474;2022-12-26T03:22:31;13.20;85.60
45785;DHT22;31489;51.404;5.474;2022-12-26T03:25:00;13.20;85.60
45785;DHT22;31489;51.404;5.474;2022-12-26T03:27:45;13.20;85.60
45785;DHT22;31489;51.404;5.474;2022-12-26T03:30:11;13.20;85.60
45785;DHT22;31489;51.404;5.474;2022-12-26T03:32:56;13.20;85.60
45785;DHT22;31489;51.404;5.474;2022-12-26T03:35:23;13.20;85.50
45785;DHT22;31489;51.404;5.474;2022-12-26T03:38:05;13.20;85.40
45785;DHT22;31489;51.404;5.474;2022-12-26T03:40:46;13.20;85.20
45785;DHT22;31489;51.404;5.474;2022-12-26T03:49:42;13.20;85.00
45785;DHT22;31489;51.404;5.474;2022-12-26T03:52:36;13.20;85.00
45785;DHT22;31489;51.404;5.474;2022-12-26T03:55:27;13.20;84.90
45785;DHT22;31489;51.404;5.474;2022-12-26T03:58:28;13.20;85.50
45785;DHT22;31489;51.404;5.474;2022-12-26T04:01:21;13.20;84.70
45785;DHT22;31489;51.404;5.474;2022-12-26T04:04:10;13.20;84.70
45785;DHT22;31489;51.404;5.474;2022-12-26T04:07:10;13.20;84.70
45785;DHT22;31489;51.404;5.474;2022-12-26T04:10:03;13.10;84.60
45785;DHT22;31489;51.404;5.474;2022-12-26T04:12:51;13.10;84.60
45785;DHT22;31489;51.404;5.474;2022-12-26T04:15:44;13.10;84.60
45785;DHT22;31489;51.404;5.474;2022-12-26T04:18:55;13.00;84.50
45785;DHT22;31489;51.404;5.474;2022-12-26T04:21:46;13.00;84.40
45785;DHT22;31489;51.404;5.474;2022-12-26T04:24:39;13.00;84.60
45785;DHT22;31489;51.404;5.474;2022-12-26T04:27:28;13.00;84.70
45785;DHT22;31489;51.404;5.474;2022-12-26T04:30:14;13.00;84.70
45785;DHT22;31489;51.404;5.474;2022-12-26T04:33:06;12.90;84.60
45785;DHT22;31489;51.404;5.474;2022-12-26T04:35:56;13.00;84.60
45785;DHT22;31489;51.404;5.474;2022-12-26T04:38:47;12.90;84.60
45785;DHT22;31489;51.404;5.474;2022-12-26T04:41:33;12.90;84.70
45785;DHT22;31489;51.404;5.474;2022-12-26T04:44:19;12.90;84.70
45785;DHT22;31489;51.404;5.474;2022-12-26T04:46:50;12.90;85.30
45785;DHT22;31489;51.404;5.474;2022-12-26T04:49:17;12.90;84.70
45785;DHT22;31489;51.404;5.474;2022-12-26T04:52:06;12.90;84.70
45785;DHT22;31489;51.404;5.474;2022-12-26T04:54:32;12.80;84.60
45785;DHT22;31489;51.404;5.474;2022-12-26T04:56:57;12.80;84.60
45785;DHT22;31489;51.404;5.474;2022-12-26T04:59:24;12.90;84.70
45785;DHT22;31489;51.404;5.474;2022-12-26T05:01:50;12.80;84.60
45785;DHT22;31489;51.404;5.474;2022-12-26T05:04:34;12.80;84.60
45785;DHT22;31489;51.404;5.474;2022-12-26T05:07:33;12.80;84.50
45785;DHT22;31489;51.404;5.474;2022-12-26T05:10:21;12.80;84.40
45785;DHT22;31489;51.404;5.474;2022-12-26T05:12:47;12.80;84.50
45785;DHT22;31489;51.404;5.474;2022-12-26T05:15:13;12.80;84.50
45785;DHT22;31489;51.404;5.474;2022-12-26T05:17:39;12.80;84.40
45785;DHT22;31489;51.404;5.474;2022-12-26T05:20:23;12.80;84.50
45785;DHT22;31489;51.404;5.474;2022-12-26T05:22:54;12.80;84.50
45785;DHT22;31489;51.404;5.474;2022-12-26T05:25:40;12.80;84.50
45785;DHT22;31489;51.404;5.474;2022-12-26T05:28:25;12.80;84.50
45785;DHT22;31489;51.404;5.474;2022-12-26T05:31:11;12.80;84.40
45785;DHT22;31489;51.404;5.474;2022-12-26T05:33:37;12.80;84.40
45785;DHT22;31489;51.404;5.474;2022-12-26T05:36:23;12.80;84.40
45785;DHT22;31489;51.404;5.474;2022-12-26T05:38:49;12.80;84.30
45785;DHT22;31489;51.404;5.474;2022-12-26T05:41:16;12.80;84.40
45785;DHT22;31489;51.404;5.474;2022-12-26T05:43:41;12.80;84.40
45785;DHT22;31489;51.404;5.474;2022-12-26T05:46:07;12.80;84.40
45785;DHT22;31489;51.404;5.474;2022-12-26T05:48:33;12.80;84.20
45785;DHT22;31489;51.404;5.474;2022-12-26T05:50:59;12.80;84.20
45785;DHT22;31489;51.404;5.474;2022-12-26T05:53:26;12.80;84.20
45785;DHT22;31489;51.404;5.474;2022-12-26T05:55:51;12.80;84.10
45785;DHT22;31489;51.404;5.474;2022-12-26T05:58:17;12.80;84.10
45785;DHT22;31489;51.404;5.474;2022-12-26T06:00:43;12.70;84.10
45785;DHT22;31489;51.404;5.474;2022-12-26T06:03:08;12.70;84.10
45785;DHT22;31489;51.404;5.474;2022-12-26T06:05:34;12.70;84.10
45785;DHT22;31489;51.404;5.474;2022-12-26T06:07:59;12.70;84.10
45785;DHT22;31489;51.404;5.474;2022-12-26T06:10:25;12.70;84.00
45785;DHT22;31489;51.404;5.474;2022-12-26T06:12:54;12.70;84.00
45785;DHT22;31489;51.404;5.474;2022-12-26T06:15:19;12.70;84.10
45785;DHT22;31489;51.404;5.474;2022-12-26T06:17:45;12.70;84.10
45785;DHT22;31489;51.404;5.474;2022-12-26T06:20:11;12.70;84.20
45785;DHT22;31489;51.404;5.474;2022-12-26T06:22:36;12.70;84.30
45785;DHT22;31489;51.404;5.474;2022-12-26T06:25:02;12.70;84.50
45785;DHT22;31489;51.404;5.474;2022-12-26T06:27:27;12.70;84.50
45785;DHT22;31489;51.404;5.474;2022-12-26T06:29:53;12.70;84.60
45785;DHT22;31489;51.404;5.474;2022-12-26T06:32:19;12.70;84.60
45785;DHT22;31489;51.404;5.474;2022-12-26T06:34:44;12.70;84.60
45785;DHT22;31489;51.404;5.474;2022-12-26T06:37:11;12.70;84.60
45785;DHT22;31489;51.404;5.474;2022-12-26T06:39:37;12.70;85.10
45785;DHT22;31489;51.404;5.474;2022-12-26T06:42:02;12.80;84.60
45785;DHT22;31489;51.404;5.474;2022-12-26T06:44:29;12.80;84.60
45785;DHT22;31489;51.404;5.474;2022-12-26T06:46:55;12.80;85.20
45785;DHT22;31489;51.404;5.474;2022-12-26T06:49:21;12.80;84.50
45785;DHT22;31489;51.404;5.474;2022-12-26T06:51:46;12.80;84.50
45785;DHT22;31489;51.404;5.474;2022-12-26T06:54:12;12.80;84.50
45785;DHT22;31489;51.404;5.474;2022-12-26T06:56:38;12.80;84.40
45785;DHT22;31489;51.404;5.474;2022-12-26T06:59:05;12.80;84.40
45785;DHT22;31489;51.404;5.474;2022-12-26T07:01:32;12.80;84.10
45785;DHT22;31489;51.404;5.474;2022-12-26T07:03:59;12.90;84.00
45785;DHT22;31489;51.404;5.474;2022-12-26T07:06:29;12.80;83.90
45785;DHT22;31489;51.404;5.474;2022-12-26T07:09:00;12.80;83.60
45785;DHT22;31489;51.404;5.474;2022-12-26T07:11:29;12.80;83.40
45785;DHT22;31489;51.404;5.474;2022-12-26T07:13:55;12.80;83.40
45785;DHT22;31489;51.404;5.474;2022-12-26T07:16:22;12.80;83.40
45785;DHT22;31489;51.404;5.474;2022-12-26T07:18:48;12.80;83.30
45785;DHT22;31489;51.404;5.474;2022-12-26T07:21:14;12.80;83.20
45785;DHT22;31489;51.404;5.474;2022-12-26T07:23:40;12.80;83.20
45785;DHT22;31489;51.404;5.474;2022-12-26T07:26:06;12.80;83.20
45785;DHT22;31489;51.404;5.474;2022-12-26T07:28:32;12.80;83.30
45785;DHT22;31489;51.404;5.474;2022-12-26T07:30:57;12.80;83.20
45785;DHT22;31489;51.404;5.474;2022-12-26T07:33:25;12.80;83.20
45785;DHT22;31489;51.404;5.474;2022-12-26T07:35:51;12.70;83.20
45785;DHT22;31489;51.404;5.474;2022-12-26T07:38:16;12.70;83.20
45785;DHT22;31489;51.404;5.474;2022-12-26T07:40:42;12.70;83.10
45785;DHT22;31489;51.404;5.474;2022-12-26T07:43:08;12.70;83.10
45785;DHT22;31489;51.404;5.474;2022-12-26T07:45:33;12.60;83.00
45785;DHT22;31489;51.404;5.474;2022-12-26T07:47:59;12.60;83.10
45785;DHT22;31489;51.404;5.474;2022-12-26T07:50:25;12.60;82.90
45785;DHT22;31489;51.404;5.474;2022-12-26T07:52:51;12.60;82.90
45785;DHT22;31489;51.404;5.474;2022-12-26T07:55:17;12.60;82.90
45785;DHT22;31489;51.404;5.474;2022-12-26T07:57:42;12.60;83.00
45785;DHT22;31489;51.404;5.474;2022-12-26T08:00:09;12.60;82.90
45785;DHT22;31489;51.404;5.474;2022-12-26T08:02:35;12.60;82.90
45785;DHT22;31489;51.404;5.474;2022-12-26T08:05:01;12.60;82.90
45785;DHT22;31489;51.404;5.474;2022-12-26T08:07:26;12.60;82.90
45785;DHT22;31489;51.404;5.474;2022-12-26T08:09:52;12.70;82.80
45785;DHT22;31489;51.404;5.474;2022-12-26T08:12:18;12.60;82.80
45785;DHT22;31489;51.404;5.474;2022-12-26T08:14:46;12.70;82.80
45785;DHT22;31489;51.404;5.474;2022-12-26T08:17:12;12.70;82.80
45785;DHT22;31489;51.404;5.474;2022-12-26T08:19:38;12.70;82.80
45785;DHT22;31489;51.404;5.474;2022-12-26T08:22:03;12.70;82.70
45785;DHT22;31489;51.404;5.474;2022-12-26T08:24:29;12.70;82.70
45785;DHT22;31489;51.404;5.474;2022-12-26T08:26:55;12.70;82.70
45785;DHT22;31489;51.404;5.474;2022-12-26T08:29:21;12.70;82.70
45785;DHT22;31489;51.404;5.474;2022-12-26T08:31:47;12.70;82.80
45785;DHT22;31489;51.404;5.474;2022-12-26T08:34:12;12.70;82.60
45785;DHT22;31489;51.404;5.474;2022-12-26T08:36:38;12.70;82.70
45785;DHT22;31489;51.404;5.474;2022-12-26T08:39:04;12.70;82.70
45785;DHT22;31489;51.404;5.474;2022-12-26T08:41:30;12.70;82.60
45785;DHT22;31489;51.404;5.474;2022-12-26T08:43:56;12.70;82.60
45785;DHT22;31489;51.404;5.474;2022-12-26T08:46:21;12.80;82.60
45785;DHT22;31489;51.404;5.474;2022-12-26T08:48:49;12.80;82.70
45785;DHT22;31489;51.404;5.474;2022-12-26T08:51:18;12.80;82.60
45785;DHT22;31489;51.404;5.474;2022-12-26T08:53:44;12.80;82.60
45785;DHT22;31489;51.404;5.474;2022-12-26T08:56:13;12.80;82.60
45785;DHT22;31489;51.404;5.474;2022-12-26T08:58:39;12.80;82.60
45785;DHT22;31489;51.404;5.474;2022-12-26T09:01:14;12.80;82.60
45785;DHT22;31489;51.404;5.474;2022-12-26T09:03:41;12.80;82.80
45785;DHT22;31489;51.404;5.474;2022-12-26T09:06:08;12.90;83.00
45785;DHT22;31489;51.404;5.474;2022-12-26T09:08:36;12.90;82.90
45785;DHT22;31489;51.404;5.474;2022-12-26T09:11:04;13.00;82.80
45785;DHT22;31489;51.404;5.474;2022-12-26T09:13:31;13.00;82.80
45785;DHT22;31489;51.404;5.474;2022-12-26T09:16:15;13.10;82.70
45785;DHT22;31489;51.404;5.474;2022-12-26T09:18:43;13.10;81.80
45785;DHT22;31489;51.404;5.474;2022-12-26T09:21:10;13.20;82.10
45785;DHT22;31489;51.404;5.474;2022-12-26T09:23:37;13.20;81.80
45785;DHT22;31489;51.404;5.474;2022-12-26T09:26:05;13.30;82.10
45785;DHT22;31489;51.404;5.474;2022-12-26T09:28:32;13.30;81.90
45785;DHT22;31489;51.404;5.474;2022-12-26T09:31:03;13.30;81.70
45785;DHT22;31489;51.404;5.474;2022-12-26T09:33:30;13.40;81.70
45785;DHT22;31489;51.404;5.474;2022-12-26T09:35:57;13.40;81.50
45785;DHT22;31489;51.404;5.474;2022-12-26T09:38:23;13.40;81.30
45785;DHT22;31489;51.404;5.474;2022-12-26T09:44:19;13.50;80.40
45785;DHT22;31489;51.404;5.474;2022-12-26T09:49:37;13.40;80.50
45785;DHT22;31489;51.404;5.474;2022-12-26T09:52:14;13.50;80.60
45785;DHT22;31489;51.404;5.474;2022-12-26T09:54:50;13.50;80.50
45785;DHT22;31489;51.404;5.474;2022-12-26T09:57:22;13.50;80.30
45785;DHT22;31489;51.404;5.474;2022-12-26T09:59:55;13.50;80.10
45785;DHT22;31489;51.404;5.474;2022-12-26T10:02:23;13.50;80.10
45785;DHT22;31489;51.404;5.474;2022-12-26T10:04:49;13.50;80.30
45785;DHT22;31489;51.404;5.474;2022-12-26T10:25:24;13.60;79.00
45785;DHT22;31489;51.404;5.474;2022-12-26T10:27:50;13.60;79.30
45785;DHT22;31489;51.404;5.474;2022-12-26T10:30:34;13.60;79.40
45785;DHT22;31489;51.404;5.474;2022-12-26T10:33:11;13.60;78.70
45785;DHT22;31489;51.404;5.474;2022-12-26T10:35:41;13.60;79.00
45785;DHT22;31489;51.404;5.474;2022-12-26T10:38:29;13.60;78.90
45785;DHT22;31489;51.404;5.474;2022-12-26T10:41:05;13.60;78.50
45785;DHT22;31489;51.404;5.474;2022-12-26T10:43:33;13.60;78.50
45785;DHT22;31489;51.404;5.474;2022-12-26T10:48:28;13.70;79.20
45785;DHT22;31489;51.404;5.474;2022-12-26T10:50:54;13.70;79.00
45785;DHT22;31489;51.404;5.474;2022-12-26T10:53:20;13.70;79.00
45785;DHT22;31489;51.404;5.474;2022-12-26T10:55:45;13.70;79.60
45785;DHT22;31489;51.404;5.474;2022-12-26T11:00:45;13.80;79.60
45785;DHT22;31489;51.404;5.474;2022-12-26T11:03:16;13.80;80.00
45785;DHT22;31489;51.404;5.474;2022-12-26T11:05:45;13.80;79.50
45785;DHT22;31489;51.404;5.474;2022-12-26T11:08:15;13.70;79.10
45785;DHT22;31489;51.404;5.474;2022-12-26T11:10:59;13.60;78.20
45785;DHT22;31489;51.404;5.474;2022-12-26T11:13:26;13.50;78.10
45785;DHT22;31489;51.404;5.474;2022-12-26T11:15:52;13.30;78.20
45785;DHT22;31489;51.404;5.474;2022-12-26T11:18:37;13.20;78.60
45785;DHT22;31489;51.404;5.474;2022-12-26T11:21:12;13.00;78.60
45785;DHT22;31489;51.404;5.474;2022-12-26T11:23:38;12.90;78.30
45785;DHT22;31489;51.404;5.474;2022-12-26T11:29:09;12.70;78.00
45785;DHT22;31489;51.404;5.474;2022-12-26T11:31:35;12.50;78.40
45785;DHT22;31489;51.404;5.474;2022-12-26T11:34:10;12.50;79.00
45785;DHT22;31489;51.404;5.474;2022-12-26T11:36:45;12.40;79.20
45785;DHT22;31489;51.404;5.474;2022-12-26T11:39:27;12.30;79.30
45785;DHT22;31489;51.404;5.474;2022-12-26T11:41:54;12.30;79.40
45785;DHT22;31489;51.404;5.474;2022-12-26T11:44:29;12.30;79.80
45785;DHT22;31489;51.404;5.474;2022-12-26T11:47:08;12.20;79.90
45785;DHT22;31489;51.404;5.474;2022-12-26T11:49:37;12.20;80.00
45785;DHT22;31489;51.404;5.474;2022-12-26T12:00:42;12.20;79.80
45785;DHT22;31489;51.404;5.474;2022-12-26T12:03:21;12.20;80.00
45785;DHT22;31489;51.404;5.474;2022-12-26T12:14:39;12.10;78.70
45785;DHT22;31489;51.404;5.474;2022-12-26T12:17:23;12.00;78.60
45785;DHT22;31489;51.404;5.474;2022-12-26T12:34:00;11.90;78.20
45785;DHT22;31489;51.404;5.474;2022-12-26T12:36:34;11.80;77.70
45785;DHT22;31489;51.404;5.474;2022-12-26T12:39:18;11.80;77.90
45785;DHT22;31489;51.404;5.474;2022-12-26T12:42:17;11.80;77.70
45785;DHT22;31489;51.404;5.474;2022-12-26T12:58:56;11.70;77.50
45785;DHT22;31489;51.404;5.474;2022-12-26T13:01:28;11.60;77.20
45785;DHT22;31489;51.404;5.474;2022-12-26T13:04:04;11.60;77.10
45785;DHT22;31489;51.404;5.474;2022-12-26T13:06:41;11.60;76.90
45785;DHT22;31489;51.404;5.474;2022-12-26T13:09:20;11.60;76.10
45785;DHT22;31489;51.404;5.474;2022-12-26T13:11:55;11.50;76.10
45785;DHT22;31489;51.404;5.474;2022-12-26T13:14:32;11.50;76.00
45785;DHT22;31489;51.404;5.474;2022-12-26T13:22:32;11.40;75.70
45785;DHT22;31489;51.404;5.474;2022-12-26T13:25:19;11.40;76.50
45785;DHT22;31489;51.404;5.474;2022-12-26T13:27:48;11.40;76.50
45785;DHT22;31489;51.404;5.474;2022-12-26T13:30:16;11.30;76.40
45785;DHT22;31489;51.404;5.474;2022-12-26T13:32:42;11.30;76.30
45785;DHT22;31489;51.404;5.474;2022-12-26T13:38:12;11.30;75.50
45785;DHT22;31489;51.404;5.474;2022-12-26T13:40:52;11.30;76.30
45785;DHT22;31489;51.404;5.474;2022-12-26T13:43:24;11.40;75.80
45785;DHT22;31489;51.404;5.474;2022-12-26T13:46:52;11.40;75.90
45785;DHT22;31489;51.404;5.474;2022-12-26T13:49:39;11.40;75.50
45785;DHT22;31489;51.404;5.474;2022-12-26T14:00:05;11.30;75.20
45785;DHT22;31489;51.404;5.474;2022-12-26T14:02:53;11.30;75.20
45785;DHT22;31489;51.404;5.474;2022-12-26T14:19:59;11.10;74.00
45785;DHT22;31489;51.404;5.474;2022-12-26T14:22:38;11.10;74.10
45785;DHT22;31489;51.404;5.474;2022-12-26T14:31:25;11.00;73.30
45785;DHT22;31489;51.404;5.474;2022-12-26T14:42:15;10.80;72.60
45785;DHT22;31489;51.404;5.474;2022-12-26T14:45:00;10.70;72.10
45785;DHT22;31489;51.404;5.474;2022-12-26T15:09:32;10.20;72.60
45785;DHT22;31489;51.404;5.474;2022-12-26T15:21:01;10.00;71.90
45785;DHT22;31489;51.404;5.474;2022-12-26T15:34:40;9.80;71.80
45785;DHT22;31489;51.404;5.474;2022-12-26T15:37:52;9.70;71.10
45785;DHT22;31489;51.404;5.474;2022-12-26T15:40:30;9.70;71.80
45785;DHT22;31489;51.404;5.474;2022-12-26T15:43:16;9.60;71.30
45785;DHT22;31489;51.404;5.474;2022-12-26T15:45:52;9.60;71.40
45785;DHT22;31489;51.404;5.474;2022-12-26T16:04:57;9.30;71.70
45785;DHT22;31489;51.404;5.474;2022-12-26T16:07:36;9.30;71.40
45785;DHT22;31489;51.404;5.474;2022-12-26T16:10:33;9.20;71.10
45785;DHT22;31489;51.404;5.474;2022-12-26T16:15:57;9.20;70.80
45785;DHT22;31489;51.404;5.474;2022-12-26T16:18:29;9.20;70.80
45785;DHT22;31489;51.404;5.474;2022-12-26T16:20:58;9.20;71.60
45785;DHT22;31489;51.404;5.474;2022-12-26T16:23:44;9.20;71.20
45785;DHT22;31489;51.404;5.474;2022-12-26T16:26:17;9.20;71.30
45785;DHT22;31489;51.404;5.474;2022-12-26T16:28:44;9.20;71.10
45785;DHT22;31489;51.404;5.474;2022-12-26T16:31:19;9.20;71.50
45785;DHT22;31489;51.404;5.474;2022-12-26T16:33:45;9.20;71.00
45785;DHT22;31489;51.404;5.474;2022-12-26T16:36:20;9.20;71.40
45785;DHT22;31489;51.404;5.474;2022-12-26T16:38:47;9.20;71.20
45785;DHT22;31489;51.404;5.474;2022-12-26T16:41:27;9.20;71.40
45785;DHT22;31489;51.404;5.474;2022-12-26T16:43:55;9.10;70.90
45785;DHT22;31489;51.404;5.474;2022-12-26T16:46:25;9.10;71.20
45785;DHT22;31489;51.404;5.474;2022-12-26T16:48:56;9.10;71.20
45785;DHT22;31489;51.404;5.474;2022-12-26T16:51:46;9.10;71.10
45785;DHT22;31489;51.404;5.474;2022-12-26T16:56:51;9.00;70.70
45785;DHT22;31489;51.404;5.474;2022-12-26T16:59:22;9.00;70.80
45785;DHT22;31489;51.404;5.474;2022-12-26T17:01:51;9.00;70.70
45785;DHT22;31489;51.404;5.474;2022-12-26T17:04:21;8.90;70.80
45785;DHT22;31489;51.404;5.474;2022-12-26T17:07:02;8.90;70.70
45785;DHT22;31489;51.404;5.474;2022-12-26T17:09:36;8.90;70.30
45785;DHT22;31489;51.404;5.474;2022-12-26T17:12:05;8.90;70.70
45785;DHT22;31489;51.404;5.474;2022-12-26T17:14:36;8.80;70.70
45785;DHT22;31489;51.404;5.474;2022-12-26T17:17:10;8.80;70.80
45785;DHT22;31489;51.404;5.474;2022-12-26T17:19:55;8.80;70.70
45785;DHT22;31489;51.404;5.474;2022-12-26T17:27:45;8.80;70.00
45785;DHT22;31489;51.404;5.474;2022-12-26T17:30:29;8.70;70.50
45785;DHT22;31489;51.404;5.474;2022-12-26T17:33:04;8.70;69.80
45785;DHT22;31489;51.404;5.474;2022-12-26T17:35:33;8.70;70.20
45785;DHT22;31489;51.404;5.474;2022-12-26T17:38:02;8.70;70.40
45785;DHT22;31489;51.404;5.474;2022-12-26T17:40:39;8.60;70.50
45785;DHT22;31489;51.404;5.474;2022-12-26T17:45:38;8.50;70.20
45785;DHT22;31489;51.404;5.474;2022-12-26T17:48:05;8.50;70.50
45785;DHT22;31489;51.404;5.474;2022-12-26T17:50:36;8.50;70.50
45785;DHT22;31489;51.404;5.474;2022-12-26T17:55:40;8.50;70.40
45785;DHT22;31489;51.404;5.474;2022-12-26T17:58:11;8.50;70.60
45785;DHT22;31489;51.404;5.474;2022-12-26T18:00:37;8.50;70.30
45785;DHT22;31489;51.404;5.474;2022-12-26T18:03:02;8.40;70.40
45785;DHT22;31489;51.404;5.474;2022-12-26T18:05:28;8.40;70.50
45785;DHT22;31489;51.404;5.474;2022-12-26T18:07:54;8.40;70.60
45785;DHT22;31489;51.404;5.474;2022-12-26T18:10:24;8.30;70.40
45785;DHT22;31489;51.404;5.474;2022-12-26T18:12:51;8.30;70.20
45785;DHT22;31489;51.404;5.474;2022-12-26T18:15:17;8.20;70.40
45785;DHT22;31489;51.404;5.474;2022-12-26T18:17:44;8.20;70.40
45785;DHT22;31489;51.404;5.474;2022-12-26T18:20:16;8.20;70.40
45785;DHT22;31489;51.404;5.474;2022-12-26T18:22:41;8.20;70.40
45785;DHT22;31489;51.404;5.474;2022-12-26T18:25:11;8.20;70.50
45785;DHT22;31489;51.404;5.474;2022-12-26T18:27:36;8.10;70.50
45785;DHT22;31489;51.404;5.474;2022-12-26T18:30:02;8.10;70.50
45785;DHT22;31489;51.404;5.474;2022-12-26T18:32:30;8.10;70.60
45785;DHT22;31489;51.404;5.474;2022-12-26T18:34:57;8.10;70.40
45785;DHT22;31489;51.404;5.474;2022-12-26T18:37:24;8.10;70.50
45785;DHT22;31489;51.404;5.474;2022-12-26T18:39:51;8.10;70.50
45785;DHT22;31489;51.404;5.474;2022-12-26T18:42:17;8.00;70.50
45785;DHT22;31489;51.404;5.474;2022-12-26T18:44:43;8.00;70.60
45785;DHT22;31489;51.404;5.474;2022-12-26T18:47:11;8.00;70.60
45785;DHT22;31489;51.404;5.474;2022-12-26T18:49:38;8.00;70.50
45785;DHT22;31489;51.404;5.474;2022-12-26T18:52:03;7.90;70.70
45785;DHT22;31489;51.404;5.474;2022-12-26T18:54:29;7.90;70.50
45785;DHT22;31489;51.404;5.474;2022-12-26T18:56:54;7.90;70.80
45785;DHT22;31489;51.404;5.474;2022-12-26T18:59:20;7.90;70.50
45785;DHT22;31489;51.404;5.474;2022-12-26T19:01:46;7.90;70.70
45785;DHT22;31489;51.404;5.474;2022-12-26T19:04:14;7.90;70.60
45785;DHT22;31489;51.404;5.474;2022-12-26T19:06:40;7.80;70.40
45785;DHT22;31489;51.404;5.474;2022-12-26T19:09:08;7.80;71.10
45785;DHT22;31489;51.404;5.474;2022-12-26T19:11:33;7.80;71.30
45785;DHT22;31489;51.404;5.474;2022-12-26T19:13:59;7.80;70.80
45785;DHT22;31489;51.404;5.474;2022-12-26T19:16:25;7.80;70.70
45785;DHT22;31489;51.404;5.474;2022-12-26T19:18:51;7.80;70.70
45785;DHT22;31489;51.404;5.474;2022-12-26T19:21:16;7.80;70.70
45785;DHT22;31489;51.404;5.474;2022-12-26T19:23:45;7.80;70.70
45785;DHT22;31489;51.404;5.474;2022-12-26T19:26:13;7.80;70.70
45785;DHT22;31489;51.404;5.474;2022-12-26T19:28:39;7.80;70.80
45785;DHT22;31489;51.404;5.474;2022-12-26T19:31:10;7.70;70.80
45785;DHT22;31489;51.404;5.474;2022-12-26T19:33:36;7.70;70.80
45785;DHT22;31489;51.404;5.474;2022-12-26T19:36:02;7.70;70.90
45785;DHT22;31489;51.404;5.474;2022-12-26T19:38:28;7.70;71.00
45785;DHT22;31489;51.404;5.474;2022-12-26T19:41:02;7.70;71.00
45785;DHT22;31489;51.404;5.474;2022-12-26T19:43:28;7.60;71.00
45785;DHT22;31489;51.404;5.474;2022-12-26T19:45:59;7.60;71.10
45785;DHT22;31489;51.404;5.474;2022-12-26T19:48:25;7.60;71.00
45785;DHT22;31489;51.404;5.474;2022-12-26T19:50:51;7.60;71.20
45785;DHT22;31489;51.404;5.474;2022-12-26T19:53:17;7.60;71.30
45785;DHT22;31489;51.404;5.474;2022-12-26T19:55:42;7.60;71.30